Time;durP1;ratioP1;P1;durP2;ratioP2;P2;SDS_P1;SDS_P2;PMS_P1;PMS_P2;Temp;Humidity;BMP_temperature;BMP_pressure;BME280_temperature;BME280_humidity;BME280_pressure;Samples;Min_cycle;Max_cycle;Signal;HPM_P1;HPM_P2
2023/08/24 00:01:50;;;;;;;7.93;7.22;;;27.60;99.90;;;;;;5061776;28;20272;-76
2023/08/24 00:04:16;;;;;;;7.75;7.15;;;27.60;99.90;;;;;;5065441;28;20213;-77
2023/08/24 00:06:43;;;;;;;7.72;7.05;;;27.60;99.90;;;;;;5060371;28;20215;-77
2023/08/24 00:09:11;;;;;;;7.63;6.97;;;27.60;99.90;;;;;;5060709;28;20219;-77
2023/08/24 00:11:38;;;;;;;7.15;6.55;;;27.50;99.90;;;;;;5062936;28;20342;-77
2023/08/24 00:14:07;;;;;;;7.90;7.15;;;27.50;99.90;;;;;;5061875;28;20215;-78
2023/08/24 00:16:34;;;;;;;7.63;7.03;;;27.50;99.90;;;;;;5062526;28;20219;-77
2023/08/24 00:19:01;;;;;;;7.63;7.03;;;27.50;99.90;;;;;;5065397;28;20198;-77
2023/08/24 00:21:28;;;;;;;7.10;6.50;;;27.50;99.90;;;;;;5064528;28;20198;-77
2023/08/24 00:23:55;;;;;;;6.97;6.40;;;27.50;99.90;;;;;;5065112;28;20228;-77
2023/08/24 00:26:23;;;;;;;7.80;7.10;;;27.40;99.90;;;;;;5060023;28;20217;-76
2023/08/24 00:28:50;;;;;;;8.15;7.28;;;27.40;99.90;;;;;;5066571;28;20218;-79
2023/08/24 00:31:19;;;;;;;8.20;7.50;;;27.40;99.90;;;;;;5062100;28;20656;-76
2023/08/24 00:33:46;;;;;;;9.32;7.35;;;27.30;99.90;;;;;;5065173;28;20218;-77
2023/08/24 00:36:13;;;;;;;7.75;7.13;;;27.30;99.90;;;;;;5065307;28;20668;-76
2023/08/24 00:38:40;;;;;;;8.35;7.55;;;27.30;99.90;;;;;;5062038;28;20286;-77
2023/08/24 00:41:07;;;;;;;8.75;7.85;;;27.20;99.90;;;;;;5063012;28;20720;-77
2023/08/24 00:43:35;;;;;;;8.68;7.82;;;27.20;99.90;;;;;;5059434;28;20248;-78
2023/08/24 00:46:04;;;;;;;9.18;8.27;;;27.20;99.90;;;;;;5061170;28;20659;-77
2023/08/24 00:48:32;;;;;;;8.85;8.05;;;27.20;99.90;;;;;;5065392;28;20259;-77
2023/08/24 00:51:01;;;;;;;8.48;7.88;;;27.20;99.90;;;;;;5063501;28;20229;-77
2023/08/24 00:53:30;;;;;;;9.18;8.48;;;27.20;99.90;;;;;;5064154;28;20216;-77
2023/08/24 00:55:57;;;;;;;8.25;7.65;;;27.20;99.90;;;;;;5061149;28;20198;-77
2023/08/24 00:58:25;;;;;;;8.30;7.70;;;27.10;99.90;;;;;;5060473;28;20218;-77
2023/08/24 01:00:53;;;;;;;8.35;7.55;;;27.10;99.90;;;;;;5060879;28;20202;-77
2023/08/24 01:03:20;;;;;;;8.10;7.40;;;27.00;99.90;;;;;;5060412;28;20199;-78
2023/08/24 01:05:49;;;;;;;7.47;6.88;;;27.00;99.90;;;;;;5060283;28;20195;-77
2023/08/24 01:08:16;;;;;;;7.65;7.05;;;27.00;99.90;;;;;;5061495;28;20230;-77
2023/08/24 01:10:49;;;;;;;7.72;7.13;;;27.00;99.90;;;;;;5063888;28;20265;-77
2023/08/24 01:13:22;;;;;;;7.72;7.03;;;27.00;99.90;;;;;;5059039;28;20294;-77
2023/08/24 01:15:54;;;;;;;7.97;7.18;;;26.90;99.90;;;;;;5059949;28;20245;-78
2023/08/24 01:18:26;;;;;;;8.13;7.47;;;27.00;99.90;;;;;;5060701;28;20237;-77
2023/08/24 01:20:55;;;;;;;8.63;7.72;;;27.00;99.90;;;;;;5063150;28;20651;-77
2023/08/24 01:23:37;;;;;;;8.52;7.90;;;27.00;99.90;;;;;;5059267;28;20609;-77
2023/08/24 01:26:13;;;;;;;8.30;7.50;;;26.90;99.90;;;;;;5062775;28;20225;-77
2023/08/24 01:28:42;;;;;;;8.48;7.68;;;27.00;99.90;;;;;;5061571;28;20285;-77
2023/08/24 01:31:09;;;;;;;8.70;7.78;;;26.90;99.90;;;;;;5063833;28;20608;-78
2023/08/24 01:33:36;;;;;;;8.43;7.72;;;26.90;99.90;;;;;;5059108;28;20362;-76
2023/08/24 01:36:04;;;;;;;8.18;7.47;;;26.90;99.90;;;;;;5065407;28;20246;-77
2023/08/24 01:38:32;;;;;;;7.97;7.18;;;26.90;99.90;;;;;;5057939;28;20600;-77
2023/08/24 01:41:10;;;;;;;7.38;6.78;;;26.90;99.90;;;;;;5058603;28;20248;-76
2023/08/24 01:43:41;;;;;;;7.30;6.70;;;26.80;99.90;;;;;;5061580;28;20234;-77
2023/08/24 01:46:08;;;;;;;6.82;6.32;;;26.80;99.90;;;;;;5061394;28;20202;-77
2023/08/24 01:48:37;;;;;;;7.93;7.22;;;26.70;99.90;;;;;;5065246;28;20198;-77
2023/08/24 01:51:04;;;;;;;7.40;6.82;;;26.80;99.90;;;;;;5063848;28;20214;-77
2023/08/24 01:53:33;;;;;;;7.80;7.10;;;26.80;99.90;;;;;;5056917;28;20263;-77
2023/08/24 01:56:00;;;;;;;7.90;7.28;;;26.70;99.90;;;;;;5063541;28;20203;-76
2023/08/24 01:58:27;;;;;;;8.13;7.43;;;26.70;99.90;;;;;;5060568;28;20253;-77
2023/08/24 02:00:55;;;;;;;7.78;7.07;;;26.60;99.90;;;;;;5056155;28;20206;-76
2023/08/24 02:03:22;;;;;;;7.38;6.78;;;26.60;99.90;;;;;;5059046;28;20198;-78
2023/08/24 02:05:49;;;;;;;8.18;7.47;;;26.60;99.90;;;;;;5059696;28;20206;-78
2023/08/24 02:08:17;;;;;;;7.88;7.10;;;26.50;99.90;;;;;;5060929;28;20271;-78
2023/08/24 02:10:44;;;;;;;6.63;6.13;;;26.50;99.90;;;;;;5061237;28;20219;-77
2023/08/24 02:13:10;;;;;;;8.25;7.55;;;26.50;99.90;;;;;;5060804;28;20274;-78
2023/08/24 02:15:40;;;;;;;7.88;7.28;;;26.50;99.90;;;;;;5059295;28;20351;-76
2023/08/24 02:18:09;;;;;;;7.30;6.70;;;26.50;99.90;;;;;;5064212;28;20305;-77
2023/08/24 02:20:36;;;;;;;7.00;6.45;;;26.50;99.90;;;;;;5054646;28;20255;-78
2023/08/24 02:23:03;;;;;;;7.32;6.72;;;26.40;99.90;;;;;;5065525;28;20202;-77
2023/08/24 02:25:30;;;;;;;7.60;6.90;;;26.40;99.90;;;;;;5060954;28;20205;-77
2023/08/24 02:27:57;;;;;;;8.40;7.65;;;26.40;99.90;;;;;;5066515;28;20214;-77
2023/08/24 02:30:24;;;;;;;7.65;6.95;;;26.40;99.90;;;;;;5064521;28;20214;-77
2023/08/24 02:32:51;;;;;;;7.25;6.60;;;26.30;99.90;;;;;;5065887;28;20202;-77
2023/08/24 02:35:20;;;;;;;7.25;6.65;;;26.30;99.90;;;;;;5061237;28;20205;-77
2023/08/24 02:37:47;;;;;;;8.25;7.22;;;26.30;99.90;;;;;;5067662;28;20222;-76
2023/08/24 02:40:13;;;;;;;6.93;6.32;;;26.30;99.90;;;;;;5064395;28;20244;-76
2023/08/24 02:42:40;;;;;;;7.38;6.70;;;26.20;99.90;;;;;;5066452;28;20705;-78
2023/08/24 02:45:08;;;;;;;7.55;6.95;;;26.20;99.90;;;;;;5066194;28;20195;-77
2023/08/24 02:47:36;;;;;;;9.90;7.38;;;26.20;99.90;;;;;;5075157;28;20221;-77
2023/08/24 02:50:04;;;;;;;7.00;6.50;;;26.20;99.90;;;;;;5077523;28;20217;-77
2023/08/24 02:52:32;;;;;;;7.55;6.43;;;26.20;99.90;;;;;;5076114;28;20229;-77
2023/08/24 02:54:59;;;;;;;6.68;6.18;;;26.10;99.90;;;;;;5070550;28;20244;-76
2023/08/24 02:57:26;;;;;;;7.30;6.60;;;26.10;99.90;;;;;;5070020;28;20219;-76
2023/08/24 02:59:53;;;;;;;6.70;6.20;;;26.10;99.90;;;;;;5065195;28;20652;-76
2023/08/24 03:02:20;;;;;;;7.40;6.75;;;26.10;99.90;;;;;;5063035;28;20198;-76
2023/08/24 03:04:47;;;;;;;7.15;6.55;;;26.00;99.90;;;;;;5061770;28;20203;-77
2023/08/24 03:07:14;;;;;;;6.90;6.20;;;26.00;99.90;;;;;;5063902;28;20709;-79
2023/08/24 03:09:42;;;;;;;7.28;6.57;;;26.00;99.90;;;;;;5060893;28;20676;-77
2023/08/24 03:12:09;;;;;;;7.53;6.82;;;26.00;99.90;;;;;;5064762;28;20199;-77
2023/08/24 03:14:36;;;;;;;6.78;6.18;;;26.00;99.90;;;;;;5059320;28;20283;-77
2023/08/24 03:17:05;;;;;;;6.57;6.07;;;26.00;99.90;;;;;;5066838;28;20720;-77
2023/08/24 03:19:32;;;;;;;6.65;6.15;;;25.90;99.90;;;;;;5065610;28;20680;-77
2023/08/24 03:21:59;;;;;;;6.75;6.15;;;25.90;99.90;;;;;;5058627;28;20236;-77
2023/08/24 03:24:26;;;;;;;7.40;6.72;;;25.90;99.90;;;;;;5066346;28;20263;-75
2023/08/24 03:26:54;;;;;;;7.85;7.25;;;25.90;99.90;;;;;;5068206;28;20768;-77
2023/08/24 03:29:22;;;;;;;7.32;6.60;;;25.80;99.90;;;;;;5064633;28;20198;-77
2023/08/24 03:31:49;;;;;;;6.93;6.32;;;25.80;99.90;;;;;;5064728;28;20727;-77
2023/08/24 03:34:16;;;;;;;7.07;6.47;;;25.80;99.90;;;;;;5067273;28;20252;-77
2023/08/24 03:36:43;;;;;;;6.88;6.28;;;25.70;99.90;;;;;;5064992;28;20321;-77
2023/08/24 03:39:11;;;;;;;7.32;6.63;;;25.70;99.90;;;;;;5068048;28;20195;-77
2023/08/24 03:41:38;;;;;;;6.57;6.07;;;25.70;99.90;;;;;;5055106;28;20299;-76
2023/08/24 03:44:06;;;;;;;7.22;6.40;;;25.60;99.90;;;;;;5064683;28;20199;-77
2023/08/24 03:46:33;;;;;;;6.47;5.95;;;25.50;99.90;;;;;;5062776;28;20305;-77
2023/08/24 03:49:00;;;;;;;6.28;5.78;;;25.50;99.90;;;;;;5067517;28;20200;-78
2023/08/24 03:51:29;;;;;;;7.60;6.90;;;25.40;99.90;;;;;;5061600;28;20222;-77
2023/08/24 03:53:56;;;;;;;8.10;6.75;;;25.30;99.90;;;;;;5062675;28;20260;-77
2023/08/24 03:56:23;;;;;;;7.40;6.70;;;25.30;99.90;;;;;;5059063;28;20648;-77
2023/08/24 03:58:50;;;;;;;7.35;6.65;;;25.20;99.90;;;;;;5063673;28;20939;-77
2023/08/24 04:01:18;;;;;;;7.20;6.70;;;25.10;99.90;;;;;;5061350;28;20257;-77
2023/08/24 04:03:45;;;;;;;7.35;6.50;;;25.10;99.90;;;;;;5066377;28;20206;-77
2023/08/24 04:06:12;;;;;;;7.13;6.53;;;25.10;99.90;;;;;;5064818;28;20263;-77
2023/08/24 04:08:39;;;;;;;7.13;6.60;;;25.10;99.90;;;;;;5062059;28;20202;-75
2023/08/24 04:11:06;;;;;;;7.20;6.60;;;25.10;99.90;;;;;;5063630;28;20222;-76
2023/08/24 04:13:33;;;;;;;7.70;6.97;;;25.10;99.90;;;;;;5060947;28;20295;-76
2023/08/24 04:16:00;;;;;;;7.28;6.65;;;25.10;99.90;;;;;;5062665;28;20203;-77
2023/08/24 04:18:28;;;;;;;7.35;6.75;;;25.20;99.90;;;;;;5058834;28;20241;-77
2023/08/24 04:20:55;;;;;;;7.85;7.05;;;25.20;99.90;;;;;;5064381;28;20195;-77
2023/08/24 04:23:26;;;;;;;7.00;6.00;;;25.20;99.90;;;;;;5059236;28;20206;-77
2023/08/24 04:25:53;;;;;;;7.93;7.15;;;25.20;99.90;;;;;;5059724;28;20282;-77
2023/08/24 04:28:20;;;;;;;7.40;6.70;;;25.20;99.90;;;;;;5062017;28;20313;-77
2023/08/24 04:30:51;;;;;;;6.88;6.00;;;25.30;99.90;;;;;;5058594;28;20600;-77
2023/08/24 04:33:18;;;;;;;7.45;6.75;;;25.30;99.90;;;;;;5059259;28;20341;-77
2023/08/24 04:35:48;;;;;;;7.00;6.40;;;25.20;99.90;;;;;;5058516;28;20711;-77
2023/08/24 04:38:15;;;;;;;6.43;5.93;;;25.20;99.90;;;;;;5059475;28;20944;-77
2023/08/24 04:40:50;;;;;;;7.43;6.72;;;25.20;99.90;;;;;;5061785;28;20198;-77
2023/08/24 04:43:17;;;;;;;6.75;6.15;;;25.20;99.90;;;;;;5058816;28;20233;-76
2023/08/24 04:45:46;;;;;;;7.55;6.85;;;25.20;99.90;;;;;;5061532;28;20260;-77
2023/08/24 04:48:13;;;;;;;7.63;6.93;;;25.20;99.90;;;;;;5061610;28;20236;-78
2023/08/24 04:50:40;;;;;;;7.85;7.18;;;25.30;99.90;;;;;;5063220;28;20222;-77
2023/08/24 04:53:08;;;;;;;7.35;6.75;;;25.30;99.90;;;;;;5060307;28;20282;-77
2023/08/24 04:55:35;;;;;;;7.95;7.18;;;25.30;99.90;;;;;;5059358;28;20203;-76
2023/08/24 04:58:02;;;;;;;7.70;7.07;;;25.30;99.90;;;;;;5063931;28;20279;-78
2023/08/24 05:00:32;;;;;;;8.05;7.28;;;25.30;99.90;;;;;;5061935;28;20186;-77
2023/08/24 05:02:59;;;;;;;7.00;6.18;;;25.30;99.90;;;;;;5063070;28;20207;-77
2023/08/24 05:05:26;;;;;;;6.68;6.18;;;25.30;99.90;;;;;;5058343;28;20294;-77
2023/08/24 05:07:55;;;;;;;7.00;6.30;;;25.40;99.90;;;;;;5063260;28;20230;-79
2023/08/24 05:10:24;;;;;;;7.15;6.50;;;25.50;99.90;;;;;;5058448;28;20335;-78
2023/08/24 05:12:51;;;;;;;6.70;6.20;;;25.50;99.90;;;;;;5062285;28;20190;-78
2023/08/24 05:15:18;;;;;;;7.25;6.60;;;25.70;99.90;;;;;;5060237;28;20201;-78
2023/08/24 05:17:45;;;;;;;7.38;6.38;;;25.80;99.90;;;;;;5062217;28;20266;-80
2023/08/24 05:20:12;;;;;;;7.68;7.07;;;25.90;99.90;;;;;;5063659;28;20712;-79
2023/08/24 05:22:39;;;;;;;8.27;6.95;;;26.00;99.90;;;;;;5067252;28;20259;-80
2023/08/24 05:25:07;;;;;;;6.68;6.07;;;26.00;99.90;;;;;;5064074;28;20198;-78
2023/08/24 05:27:35;;;;;;;7.65;6.85;;;26.00;99.90;;;;;;5067403;28;20695;-78
2023/08/24 05:30:05;;;;;;;7.60;6.55;;;25.90;99.90;;;;;;5063468;28;20199;-79
2023/08/24 05:32:37;;;;;;;7.68;6.95;;;25.90;99.90;;;;;;5047161;28;20225;-79
2023/08/24 05:35:05;;;;;;;7.22;6.55;;;26.00;99.90;;;;;;5059981;28;20673;-78
2023/08/24 05:37:32;;;;;;;7.35;6.75;;;26.10;99.90;;;;;;5068794;28;20704;-79
2023/08/24 05:40:00;;;;;;;7.07;6.47;;;26.30;99.90;;;;;;5064267;28;20207;-79
2023/08/24 05:42:27;;;;;;;7.63;6.32;;;26.40;99.90;;;;;;5065162;28;20213;-79
2023/08/24 05:44:56;;;;;;;6.75;6.15;;;26.60;99.90;;;;;;5062928;28;20267;-79
2023/08/24 05:47:23;;;;;;;6.63;6.03;;;26.70;99.90;;;;;;5061947;28;20279;-79
2023/08/24 05:49:50;;;;;;;6.68;6.15;;;26.90;99.90;;;;;;5062130;28;20664;-79
2023/08/24 05:52:17;;;;;;;7.15;6.55;;;27.00;99.90;;;;;;5069421;28;20263;-78
2023/08/24 05:54:44;;;;;;;7.13;6.53;;;27.20;99.90;;;;;;5063831;28;20608;-79
2023/08/24 05:57:11;;;;;;;7.72;6.95;;;27.20;99.90;;;;;;5064362;28;20218;-79
2023/08/24 05:59:37;;;;;;;7.70;6.97;;;27.20;99.90;;;;;;5061353;28;20199;-78
2023/08/24 06:02:06;;;;;;;7.90;7.10;;;27.30;99.90;;;;;;5067737;28;20276;-79
2023/08/24 06:04:33;;;;;;;10.75;7.43;;;27.40;99.90;;;;;;5064138;28;20630;-78
2023/08/24 06:07:00;;;;;;;7.22;6.50;;;27.60;99.90;;;;;;5061346;28;20695;-78
2023/08/24 06:09:27;;;;;;;7.75;6.97;;;27.70;99.90;;;;;;5068300;28;20695;-79
2023/08/24 06:11:54;;;;;;;8.73;6.80;;;27.80;99.90;;;;;;5066369;28;20699;-79
2023/08/24 06:14:21;;;;;;;7.15;6.55;;;27.90;99.90;;;;;;5057240;28;20210;-79
2023/08/24 06:16:48;;;;;;;7.53;6.93;;;28.00;99.90;;;;;;5059018;28;20263;-80
2023/08/24 06:19:16;;;;;;;7.25;6.65;;;28.00;99.90;;;;;;5070529;28;20709;-79
2023/08/24 06:21:43;;;;;;;7.85;6.70;;;27.80;99.90;;;;;;5073952;28;20202;-80
2023/08/24 06:24:10;;;;;;;7.82;7.03;;;27.60;99.90;;;;;;5073544;28;20205;-80
2023/08/24 06:26:37;;;;;;;8.00;7.25;;;27.60;99.90;;;;;;5072808;28;20626;-80
2023/08/24 06:29:04;;;;;;;7.75;6.95;;;27.80;99.90;;;;;;5064042;28;20260;-80
2023/08/24 06:31:32;;;;;;;8.18;7.43;;;28.10;99.90;;;;;;5065468;28;20230;-80
2023/08/24 06:34:00;;;;;;;8.35;7.55;;;28.30;99.90;;;;;;5065379;28;20206;-80
2023/08/24 06:36:29;;;;;;;8.32;7.60;;;28.30;99.90;;;;;;5074090;28;20210;-80
2023/08/24 06:38:57;;;;;;;8.82;7.38;;;28.20;99.90;;;;;;5071881;28;20198;-81
2023/08/24 06:41:24;;;;;;;9.05;8.13;;;28.20;99.90;;;;;;5071547;28;20199;-80
2023/08/24 06:43:53;;;;;;;8.30;7.60;;;28.20;99.90;;;;;;5073732;28;20668;-79
2023/08/24 06:46:21;;;;;;;8.73;7.57;;;28.30;99.90;;;;;;5072970;28;20199;-80
2023/08/24 06:48:48;;;;;;;8.50;7.45;;;28.30;99.90;;;;;;5062410;28;20248;-80
2023/08/24 06:51:16;;;;;;;8.00;7.30;;;28.40;99.90;;;;;;5067815;28;20215;-79
2023/08/24 06:53:46;;;;;;;11.50;8.07;;;28.40;99.90;;;;;;5070252;28;20206;-80
2023/08/24 06:56:15;;;;;;;8.05;7.25;;;28.70;99.90;;;;;;5072386;28;20606;-80
2023/08/24 06:58:42;;;;;;;8.25;7.45;;;28.80;99.90;;;;;;5070434;28;20268;-77
2023/08/24 07:01:10;;;;;;;8.20;7.45;;;28.70;99.90;;;;;;5066823;28;20232;-79
2023/08/24 07:03:37;;;;;;;8.88;8.00;;;28.50;99.90;;;;;;5073256;28;20694;-79
2023/08/24 07:06:07;;;;;;;8.50;7.60;;;28.40;99.90;;;;;;5069558;28;20660;-78
2023/08/24 07:08:34;;;;;;;8.38;7.60;;;28.20;99.90;;;;;;5067209;28;20198;-78
2023/08/24 07:11:03;;;;;;;7.90;7.03;;;28.10;99.90;;;;;;5062772;28;20225;-77
2023/08/24 07:13:30;;;;;;;8.02;6.72;;;28.10;99.90;;;;;;5066690;28;20293;-77
2023/08/24 07:15:57;;;;;;;8.48;7.68;;;28.20;99.90;;;;;;5065519;28;20256;-76
2023/08/24 07:18:24;;;;;;;7.97;7.03;;;28.60;99.90;;;;;;5058572;28;20226;-77
2023/08/24 07:20:51;;;;;;;6.50;5.93;;;29.00;99.90;;;;;;5056921;28;20206;-77
2023/08/24 07:23:17;;;;;;;8.13;6.90;;;29.70;99.90;;;;;;5056088;28;20909;-77
2023/08/24 07:25:44;;;;;;;7.05;6.45;;;30.20;99.90;;;;;;5056347;28;20198;-79
2023/08/24 07:28:13;;;;;;;8.30;7.35;;;30.20;99.90;;;;;;5059504;28;20242;-78
2023/08/24 07:30:40;;;;;;;8.07;7.22;;;30.00;99.90;;;;;;5060009;28;20210;-77
2023/08/24 07:33:07;;;;;;;8.70;7.82;;;29.70;99.90;;;;;;5063125;28;20233;-77
2023/08/24 07:35:34;;;;;;;8.32;7.45;;;29.60;99.90;;;;;;5075167;28;20722;-78
2023/08/24 07:38:02;;;;;;;7.78;7.07;;;29.70;99.90;;;;;;5070334;28;20251;-77
2023/08/24 07:40:29;;;;;;;8.10;7.30;;;30.00;99.90;;;;;;5073646;28;20285;-77
2023/08/24 07:42:56;;;;;;;9.10;8.10;;;30.20;99.90;;;;;;5073823;28;20672;-78
2023/08/24 07:45:25;;;;;;;8.43;7.60;;;30.30;99.90;;;;;;5074013;28;20600;-78
2023/08/24 07:47:52;;;;;;;11.00;7.82;;;30.40;99.90;;;;;;5072303;28;20210;-78
2023/08/24 07:50:19;;;;;;;8.48;7.68;;;30.50;99.90;;;;;;5072231;28;20195;-78
2023/08/24 07:52:46;;;;;;;9.30;8.32;;;30.60;99.90;;;;;;5075275;28;20217;-78
2023/08/24 07:55:13;;;;;;;8.90;8.00;;;30.70;99.90;;;;;;5072815;28;20519;-78
2023/08/24 07:57:40;;;;;;;8.70;7.25;;;30.80;99.90;;;;;;5070054;28;20261;-76
2023/08/24 08:00:09;;;;;;;7.85;7.15;;;30.90;99.90;;;;;;5071496;28;20210;-79
2023/08/24 08:02:38;;;;;;;10.70;7.57;;;31.00;99.90;;;;;;5073482;28;20212;-78
2023/08/24 08:05:07;;;;;;;8.25;7.30;;;31.10;99.90;;;;;;5067941;28;20281;-78
2023/08/24 08:07:34;;;;;;;8.60;7.72;;;31.10;99.90;;;;;;5073850;28;20210;-79
2023/08/24 08:10:01;;;;;;;9.38;7.38;;;31.00;99.90;;;;;;5067860;28;20259;-79
2023/08/24 08:12:27;;;;;;;9.77;8.63;;;31.00;99.90;;;;;;5073568;28;20265;-78
2023/08/24 08:14:54;;;;;;;9.27;7.63;;;31.00;99.90;;;;;;5062411;28;20206;-78
2023/08/24 08:17:23;;;;;;;9.52;8.05;;;31.00;99.90;;;;;;5077430;28;20218;-81
2023/08/24 08:19:55;;;;;;;8.43;7.57;;;31.30;99.90;;;;;;5069213;28;20220;-78
2023/08/24 08:22:22;;;;;;;8.82;8.02;;;31.30;99.90;;;;;;5071351;28;20659;-78
2023/08/24 08:24:49;;;;;;;8.80;7.93;;;31.20;99.90;;;;;;5070254;28;20241;-78
2023/08/24 08:27:16;;;;;;;8.98;7.35;;;31.20;99.90;;;;;;5069072;28;20246;-78
2023/08/24 08:29:43;;;;;;;8.70;7.90;;;31.30;99.90;;;;;;5072970;28;20232;-78
2023/08/24 08:32:12;;;;;;;8.90;8.05;;;31.40;99.90;;;;;;5061536;28;20255;-78
2023/08/24 08:34:39;;;;;;;8.45;7.75;;;31.40;99.90;;;;;;5070833;28;20277;-80
2023/08/24 08:37:07;;;;;;;9.10;8.23;;;31.40;99.90;;;;;;5064433;28;20345;-79
2023/08/24 08:39:34;;;;;;;9.65;8.18;;;31.30;99.90;;;;;;5067546;28;20233;-78
2023/08/24 08:42:02;;;;;;;9.48;8.55;;;31.40;99.90;;;;;;5071607;28;20605;-78
2023/08/24 08:44:32;;;;;;;8.82;7.97;;;31.40;99.90;;;;;;5075320;28;20232;-78
2023/08/24 08:46:59;;;;;;;11.15;8.23;;;31.40;99.90;;;;;;5072271;28;20225;-80
2023/08/24 08:49:26;;;;;;;8.50;7.70;;;31.50;99.90;;;;;;5071701;28;20236;-78
2023/08/24 08:51:54;;;;;;;9.25;8.18;;;31.70;99.90;;;;;;5066548;28;20754;-78
2023/08/24 08:54:22;;;;;;;11.35;8.63;;;31.90;99.90;;;;;;5074138;28;20198;-79
2023/08/24 08:56:51;;;;;;;8.00;7.30;;;32.00;99.90;;;;;;5072062;28;20703;-77
2023/08/24 08:59:18;;;;;;;8.55;7.85;;;32.20;99.90;;;;;;5072715;28;20225;-78
2023/08/24 09:01:48;;;;;;;10.73;8.70;;;32.40;99.90;;;;;;5065392;28;20665;-78
2023/08/24 09:04:15;;;;;;;8.93;7.82;;;32.40;99.90;;;;;;5072721;28;20198;-77
2023/08/24 09:06:42;;;;;;;10.38;8.88;;;32.20;99.90;;;;;;5066973;28;20246;-79
2023/08/24 09:09:09;;;;;;;9.15;8.20;;;32.20;99.90;;;;;;5065937;28;20731;-78
2023/08/24 09:11:39;;;;;;;10.00;8.23;;;32.30;99.90;;;;;;5069790;28;20218;-80
2023/08/24 09:14:06;;;;;;;10.77;7.72;;;32.60;99.90;;;;;;5070742;28;20305;-78
2023/08/24 09:16:34;;;;;;;9.35;8.48;;;32.60;99.90;;;;;;5073700;28;20287;-77
2023/08/24 09:19:05;;;;;;;8.75;7.93;;;32.70;99.90;;;;;;5067100;28;20246;-78
2023/08/24 09:21:32;;;;;;;9.82;7.72;;;32.80;99.90;;;;;;5070685;28;20198;-78
2023/08/24 09:23:59;;;;;;;9.27;8.18;;;33.20;99.90;;;;;;5064071;28;20207;-78
2023/08/24 09:26:30;;;;;;;9.43;8.38;;;33.70;99.90;;;;;;5068496;28;20617;-77
2023/08/24 09:29:00;;;;;;;8.95;8.15;;;33.60;99.90;;;;;;5068590;28;20279;-78
2023/08/24 09:31:37;;;;;;;10.52;8.10;;;33.40;99.90;;;;;;5065146;28;20194;-79
2023/08/24 09:34:04;;;;;;;10.90;7.82;;;33.40;99.90;;;;;;5063979;28;20204;-77
2023/08/24 09:36:33;;;;;;;8.30;7.57;;;33.30;99.90;;;;;;5064426;28;20305;-79
2023/08/24 09:39:00;;;;;;;9.10;8.30;;;33.40;99.90;;;;;;5061018;28;20280;-78
2023/08/24 09:41:39;;;;;;;9.20;8.30;;;33.60;99.90;;;;;;5067853;28;20288;-78
2023/08/24 09:44:08;;;;;;;9.85;8.70;;;33.60;99.90;;;;;;5076301;28;20210;-79
2023/08/24 09:46:35;;;;;;;9.50;8.60;;;33.60;99.90;;;;;;5063432;28;20228;-78
2023/08/24 09:49:13;;;;;;;8.70;7.80;;;33.50;99.90;;;;;;5066485;28;20199;-79
2023/08/24 09:51:57;;;;;;;10.18;9.27;;;33.70;99.90;;;;;;5067675;28;20201;-78
2023/08/24 09:54:57;;;;;;;9.90;8.55;;;33.80;99.90;;;;;;5062746;28;20699;-77
2023/08/24 09:58:07;;;;;;;8.50;7.70;;;33.80;99.90;;;;;;5070828;28;20641;-78
2023/08/24 10:00:37;;;;;;;8.85;8.05;;;33.90;99.90;;;;;;5060177;28;20285;-78
2023/08/24 10:03:33;;;;;;;9.82;8.93;;;33.70;99.90;;;;;;5066357;28;20244;-78
2023/08/24 10:06:17;;;;;;;11.30;8.73;;;33.80;99.90;;;;;;5048068;28;20206;-77
2023/08/24 10:13:08;;;;;;;9.07;8.35;;;33.70;99.90;;;;;;5071853;28;20629;-78
2023/08/24 10:16:35;;;;;;;8.50;7.57;;;33.90;99.90;;;;;;4974997;28;20737;-79
2023/08/24 10:20:22;;;;;;;8.95;8.15;;;34.00;99.90;;;;;;4986854;28;20206;-77
2023/08/24 11:25:57;;;;;;;8.90;7.15;;;34.70;99.90;;;;;;5035578;28;20305;-78
2023/08/24 11:28:27;;;;;;;11.00;7.88;;;34.70;99.90;;;;;;5029367;28;21125;-79
2023/08/24 11:30:58;;;;;;;9.63;7.93;;;34.60;99.90;;;;;;5059441;28;20290;-79
2023/08/24 11:33:56;;;;;;;8.45;7.32;;;34.70;99.90;;;;;;5062285;28;20206;-78
2023/08/24 11:36:44;;;;;;;7.22;6.53;;;34.70;99.90;;;;;;5063056;28;21438;-77
2023/08/24 11:48:49;;;;;;;8.05;6.93;;;35.20;99.90;;;;;;5051212;28;20209;-81
2023/08/24 11:51:17;;;;;;;7.65;6.85;;;35.10;99.90;;;;;;5060652;28;20198;-78
2023/08/24 11:53:58;;;;;;;8.68;7.22;;;35.00;99.90;;;;;;5063138;28;20219;-78
2023/08/24 11:56:25;;;;;;;8.38;7.63;;;35.00;99.90;;;;;;5058189;28;21663;-80
2023/08/24 11:58:52;;;;;;;9.05;7.07;;;34.90;99.90;;;;;;5059590;28;20210;-80
2023/08/24 12:01:20;;;;;;;8.10;7.25;;;34.90;99.90;;;;;;5059810;28;20884;-83
2023/08/24 12:03:47;;;;;;;8.18;7.35;;;34.90;99.90;;;;;;5065167;28;20198;-78
2023/08/24 12:06:15;;;;;;;8.82;7.40;;;34.80;99.90;;;;;;5060880;28;20198;-79
2023/08/24 12:08:44;;;;;;;9.95;7.55;;;34.90;99.90;;;;;;5055190;28;20233;-79
2023/08/24 12:11:13;;;;;;;8.85;6.88;;;34.80;99.90;;;;;;5063695;28;20869;-81
2023/08/24 12:13:45;;;;;;;10.48;7.78;;;34.80;99.90;;;;;;5057489;28;20688;-81
2023/08/24 12:16:13;;;;;;;8.95;7.97;;;34.90;99.90;;;;;;5056668;28;20205;-82
2023/08/24 12:18:51;;;;;;;10.20;7.97;;;34.70;99.90;;;;;;5062241;28;20672;-79
2023/08/24 12:21:19;;;;;;;9.15;6.88;;;34.80;99.90;;;;;;5056640;28;20782;-78
2023/08/24 12:23:55;;;;;;;8.07;7.35;;;34.90;99.90;;;;;;5060001;28;20195;-81
2023/08/24 12:26:22;;;;;;;8.05;7.35;;;34.90;99.90;;;;;;5061650;28;20233;-80
2023/08/24 12:28:52;;;;;;;8.23;7.30;;;34.70;99.90;;;;;;5059556;28;20256;-82
2023/08/24 12:31:20;;;;;;;8.48;7.47;;;34.80;99.90;;;;;;5059065;28;20853;-81
2023/08/24 12:34:03;;;;;;;8.38;7.57;;;35.00;99.90;;;;;;5059213;28;20933;-79
2023/08/24 12:36:30;;;;;;;9.30;8.13;;;35.00;99.90;;;;;;5059836;28;20222;-79
2023/08/24 12:38:57;;;;;;;8.60;7.88;;;35.20;99.90;;;;;;5059170;28;20206;-80
2023/08/24 12:41:24;;;;;;;9.07;8.18;;;35.30;99.90;;;;;;5061654;28;20294;-79
2023/08/24 12:43:51;;;;;;;11.82;8.00;;;35.50;99.90;;;;;;5064820;28;20200;-77
2023/08/24 12:46:19;;;;;;;12.30;9.20;;;35.70;99.90;;;;;;5064284;28;20902;-83
2023/08/24 12:48:45;;;;;;;10.10;8.85;;;35.70;99.90;;;;;;5062951;28;20668;-80
2023/08/24 12:51:14;;;;;;;11.70;9.20;;;35.90;99.90;;;;;;5059260;28;20202;-83
2023/08/24 12:53:41;;;;;;;12.40;9.65;;;35.60;99.90;;;;;;5057312;28;20338;-87
2023/08/24 12:56:08;;;;;;;10.63;9.40;;;35.70;99.90;;;;;;5059480;28;20248;-81
2023/08/24 12:58:35;;;;;;;12.13;9.20;;;35.50;99.90;;;;;;5054137;28;21242;-78
2023/08/24 13:01:02;;;;;;;12.02;9.02;;;35.50;99.90;;;;;;5060183;28;20241;-79
2023/08/24 13:03:29;;;;;;;10.68;9.02;;;35.30;99.90;;;;;;5057508;28;20195;-79
2023/08/24 13:05:56;;;;;;;16.75;9.48;;;35.20;99.90;;;;;;5063634;28;20831;-78
2023/08/24 13:08:25;;;;;;;11.30;9.13;;;35.30;99.90;;;;;;5065556;28;20762;-83
2023/08/24 13:10:52;;;;;;;10.13;9.13;;;35.50;99.90;;;;;;5060284;28;20222;-80
2023/08/24 13:13:20;;;;;;;15.35;9.73;;;35.70;99.90;;;;;;5061421;28;20716;-79
2023/08/24 13:15:49;;;;;;;10.23;8.82;;;35.70;99.90;;;;;;5059432;28;20267;-80
2023/08/24 13:18:16;;;;;;;10.55;9.35;;;35.70;99.90;;;;;;5063788;28;20252;-78
2023/08/24 13:20:43;;;;;;;13.68;9.50;;;35.90;99.90;;;;;;5063151;28;20194;-79
2023/08/24 13:23:10;;;;;;;13.57;10.40;;;35.90;99.90;;;;;;5059992;28;20677;-79
2023/08/24 13:25:38;;;;;;;11.10;10.00;;;35.90;99.90;;;;;;5053185;28;20297;-81
2023/08/24 13:28:05;;;;;;;22.38;9.48;;;35.70;99.90;;;;;;5055448;28;20253;-78
2023/08/24 13:30:32;;;;;;;11.10;9.68;;;35.60;99.90;;;;;;5061491;28;20732;-83
2023/08/24 13:32:59;;;;;;;11.38;9.23;;;35.70;99.90;;;;;;5052586;28;20701;-77
2023/08/24 13:35:26;;;;;;;11.23;9.73;;;35.80;99.90;;;;;;5051064;28;20198;-82
2023/08/24 13:37:53;;;;;;;12.13;9.65;;;35.70;99.90;;;;;;5053062;28;20311;-79
2023/08/24 13:40:20;;;;;;;12.23;9.27;;;35.80;99.90;;;;;;5052918;28;20270;-78
2023/08/24 13:42:48;;;;;;;10.48;9.40;;;35.60;99.90;;;;;;5053031;28;20226;-79
2023/08/24 13:45:16;;;;;;;11.48;9.57;;;35.60;99.90;;;;;;5051209;28;20198;-79
2023/08/24 13:47:42;;;;;;;11.82;9.45;;;35.60;99.90;;;;;;5049718;28;20217;-79
2023/08/24 13:50:10;;;;;;;11.13;9.23;;;35.70;99.90;;;;;;5056391;28;20199;-77
2023/08/24 13:52:37;;;;;;;11.07;10.07;;;35.70;99.90;;;;;;5054604;28;20210;-80
2023/08/24 13:55:08;;;;;;;10.75;9.65;;;35.80;99.90;;;;;;5053376;28;20207;-80
2023/08/24 13:57:35;;;;;;;10.32;9.32;;;35.90;99.90;;;;;;5052015;28;20249;-80
2023/08/24 14:00:04;;;;;;;11.50;9.15;;;35.90;99.90;;;;;;5056348;28;20285;-78
2023/08/24 14:02:31;;;;;;;10.43;9.35;;;35.90;99.90;;;;;;5050952;28;20198;-78
2023/08/24 14:04:58;;;;;;;10.43;8.98;;;35.90;99.90;;;;;;5049170;28;20825;-79
2023/08/24 14:07:25;;;;;;;12.80;9.43;;;35.90;99.90;;;;;;5055664;28;20226;-79
2023/08/24 14:09:52;;;;;;;12.73;10.15;;;35.80;99.90;;;;;;5051713;28;20656;-80
2023/08/24 14:12:19;;;;;;;11.25;9.88;;;35.40;99.90;;;;;;5054477;28;20206;-78